<?xml version="1.0" encoding="UTF-8" standalone="no" ?>
<gpx xmlns="http://www.topografix.com/GPX/1/1" xmlns:xsi="http://www.w3.org/2001/XMLSchema-instance" xsi:schemaLocation="http://www.topografix.com/GPX/1/1 http://www.topografix.com/GPX/1/1/gpx.xsd" version="1.1" creator="VisuGPX - https://www.visugpx.com">
  <metadata>
    <name>Pilat Pyramide de la madonne - Le Bessat</name>
    <desc><![CDATA[Commentaires à venir]]></desc>
  </metadata>
  <trk>
    <name><![CDATA[GPX Download: Le Pilat – Pyramide de la madonne Circuit à partir de Le Bessat]]></name>
    <extensions>
      <line xmlns="http://www.topografix.com/GPX/gpx_style/0/2">
        <color>0000FF</color>
        <width>4</width>
      </line>
    </extensions>
    <trkseg>
      <trkpt lat="45.36886" lon="4.52803">
        <ele>1206.193205</ele>
        <time>2021-12-19T18:58:08.782Z</time>
      </trkpt>
      <trkpt lat="45.36891" lon="4.52806">
        <ele>1206.193205</ele>
        <time>2021-12-19T18:58:10.485Z</time>
      </trkpt>
      <trkpt lat="45.36899" lon="4.52809">
        <ele>1206.193205</ele>
        <time>2021-12-19T18:58:12.752Z</time>
      </trkpt>
      <trkpt lat="45.36896" lon="4.52814">
        <ele>1206.193205</ele>
        <time>2021-12-19T18:58:13.861Z</time>
      </trkpt>
      <trkpt lat="45.36835" lon="4.52811">
        <ele>1206.193205</ele>
        <time>2021-12-19T18:58:30.762Z</time>
      </trkpt>
      <trkpt lat="45.3683" lon="4.52812">
        <ele>1206.193205</ele>
        <time>2021-12-19T18:58:31.973Z</time>
      </trkpt>
      <trkpt lat="45.3683" lon="4.52808">
        <ele>1206.193205</ele>
        <time>2021-12-19T18:58:33.011Z</time>
      </trkpt>
      <trkpt lat="45.36817" lon="4.52803">
        <ele>1206.421693</ele>
        <time>2021-12-19T18:58:38.582Z</time>
      </trkpt>
      <trkpt lat="45.36821" lon="4.52761">
        <ele>1207.038565</ele>
        <time>2021-12-19T18:58:48.901Z</time>
      </trkpt>
      <trkpt lat="45.36828" lon="4.52725">
        <ele>1207.590735</ele>
        <time>2021-12-19T18:58:58.315Z</time>
      </trkpt>
      <trkpt lat="45.36836" lon="4.52683">
        <ele>1208.22995</ele>
        <time>2021-12-19T18:59:09.816Z</time>
      </trkpt>
      <trkpt lat="45.36837" lon="4.52677">
        <ele>1208.319539</ele>
        <time>2021-12-19T18:59:11.115Z</time>
      </trkpt>
      <trkpt lat="45.36829" lon="4.52673">
        <ele>1208.492245</ele>
        <time>2021-12-19T18:59:14.323Z</time>
      </trkpt>
      <trkpt lat="45.36823" lon="4.5267">
        <ele>1208.633696</ele>
        <time>2021-12-19T18:59:17.164Z</time>
      </trkpt>
      <trkpt lat="45.36819" lon="4.52669">
        <ele>1208.719345</ele>
        <time>2021-12-19T18:59:18.841Z</time>
      </trkpt>
      <trkpt lat="45.3682" lon="4.52651">
        <ele>1208.974483</ele>
        <time>2021-12-19T18:59:23.794Z</time>
      </trkpt>
      <trkpt lat="45.3681" lon="4.52625">
        <ele>1209.418247</ele>
        <time>2021-12-19T18:59:33.365Z</time>
      </trkpt>
      <trkpt lat="45.36817" lon="4.52587">
        <ele>1209.961173</ele>
        <time>2021-12-19T18:59:44.736Z</time>
      </trkpt>
      <trkpt lat="45.36813" lon="4.52426">
        <ele>1210.505892</ele>
        <time>2021-12-19T19:00:27.419Z</time>
      </trkpt>
      <trkpt lat="45.36814" lon="4.52381">
        <ele>1210.659693</ele>
        <time>2021-12-19T19:00:37.382Z</time>
      </trkpt>
      <trkpt lat="45.36815" lon="4.52271">
        <ele>1209.391809</ele>
        <time>2021-12-19T19:00:59.228Z</time>
      </trkpt>
      <trkpt lat="45.36806" lon="4.52179">
        <ele>1207.277292</ele>
        <time>2021-12-19T19:01:16.430Z</time>
      </trkpt>
      <trkpt lat="45.36787" lon="4.52108">
        <ele>1205.527076</ele>
        <time>2021-12-19T19:01:29.721Z</time>
      </trkpt>
      <trkpt lat="45.36787" lon="4.52064">
        <ele>1203.931811</ele>
        <time>2021-12-19T19:01:37.226Z</time>
      </trkpt>
      <trkpt lat="45.36769" lon="4.51988">
        <ele>1199.82842</ele>
        <time>2021-12-19T19:01:49.781Z</time>
      </trkpt>
      <trkpt lat="45.36773" lon="4.51913">
        <ele>1195.900668</ele>
        <time>2021-12-19T19:02:01.751Z</time>
      </trkpt>
      <trkpt lat="45.36777" lon="4.51907">
        <ele>1195.47005</ele>
        <time>2021-12-19T19:02:02.940Z</time>
      </trkpt>
      <trkpt lat="45.36775" lon="4.51894">
        <ele>1194.77481</ele>
        <time>2021-12-19T19:02:04.085Z</time>
      </trkpt>
      <trkpt lat="45.36774" lon="4.5188">
        <ele>1194.077956</ele>
        <time>2021-12-19T19:02:05.263Z</time>
      </trkpt>
      <trkpt lat="45.36775" lon="4.51861">
        <ele>1193.090363</ele>
        <time>2021-12-19T19:02:06.909Z</time>
      </trkpt>
      <trkpt lat="45.36776" lon="4.51854">
        <ele>1192.689945</ele>
        <time>2021-12-19T19:02:07.547Z</time>
      </trkpt>
      <trkpt lat="45.36783" lon="4.51824">
        <ele>1191.12215</ele>
        <time>2021-12-19T19:02:10.293Z</time>
      </trkpt>
      <trkpt lat="45.36787" lon="4.51814">
        <ele>1190.616817</ele>
        <time>2021-12-19T19:02:11.238Z</time>
      </trkpt>
      <trkpt lat="45.3681" lon="4.51744">
        <ele>1186.990008</ele>
        <time>2021-12-19T19:02:17.977Z</time>
      </trkpt>
      <trkpt lat="45.36823" lon="4.51711">
        <ele>1185.208938</ele>
        <time>2021-12-19T19:02:21.406Z</time>
      </trkpt>
      <trkpt lat="45.36828" lon="4.51699">
        <ele>1184.576745</ele>
        <time>2021-12-19T19:02:22.566Z</time>
      </trkpt>
      <trkpt lat="45.36823" lon="4.51685">
        <ele>1183.853178</ele>
        <time>2021-12-19T19:02:24.094Z</time>
      </trkpt>
      <trkpt lat="45.36823" lon="4.51682">
        <ele>1183.719</ele>
        <time>2021-12-19T19:02:24.336Z</time>
      </trkpt>
      <trkpt lat="45.36817" lon="4.51645">
        <ele>1181.948621</ele>
        <time>2021-12-19T19:02:27.835Z</time>
      </trkpt>
      <trkpt lat="45.36808" lon="4.51647">
        <ele>1181.37167</ele>
        <time>2021-12-19T19:02:29.119Z</time>
      </trkpt>
      <trkpt lat="45.36801" lon="4.5165">
        <ele>1180.862538</ele>
        <time>2021-12-19T19:02:30.234Z</time>
      </trkpt>
      <trkpt lat="45.36786" lon="4.51652">
        <ele>1179.923083</ele>
        <time>2021-12-19T19:02:32.181Z</time>
      </trkpt>
      <trkpt lat="45.36785" lon="4.51652">
        <ele>1179.823105</ele>
        <time>2021-12-19T19:02:32.378Z</time>
      </trkpt>
      <trkpt lat="45.36781" lon="4.51652">
        <ele>1179.614633</ele>
        <time>2021-12-19T19:02:33.006Z</time>
      </trkpt>
      <trkpt lat="45.36756" lon="4.5165">
        <ele>1178.494689</ele>
        <time>2021-12-19T19:02:36.722Z</time>
      </trkpt>
      <trkpt lat="45.36695" lon="4.51644">
        <ele>1175.760702</ele>
        <time>2021-12-19T19:02:45.487Z</time>
      </trkpt>
      <trkpt lat="45.36693" lon="4.51645">
        <ele>1175.683734</ele>
        <time>2021-12-19T19:02:45.722Z</time>
      </trkpt>
      <trkpt lat="45.36677" lon="4.51648">
        <ele>1174.965521</ele>
        <time>2021-12-19T19:02:48.117Z</time>
      </trkpt>
      <trkpt lat="45.36662" lon="4.51651">
        <ele>1174.27916</ele>
        <time>2021-12-19T19:02:50.501Z</time>
      </trkpt>
      <trkpt lat="45.36621" lon="4.51657">
        <ele>1172.457972</ele>
        <time>2021-12-19T19:02:56.406Z</time>
      </trkpt>
      <trkpt lat="45.36598" lon="4.51652">
        <ele>1171.501175</ele>
        <time>2021-12-19T19:02:59.831Z</time>
      </trkpt>
      <trkpt lat="45.36581" lon="4.51654">
        <ele>1171.007575</ele>
        <time>2021-12-19T19:03:02.194Z</time>
      </trkpt>
      <trkpt lat="45.36566" lon="4.51655">
        <ele>1170.54714</ele>
        <time>2021-12-19T19:03:04.392Z</time>
      </trkpt>
      <trkpt lat="45.36507" lon="4.5167">
        <ele>1168.77779</ele>
        <time>2021-12-19T19:03:13.182Z</time>
      </trkpt>
      <trkpt lat="45.36476" lon="4.5166">
        <ele>1167.807333</ele>
        <time>2021-12-19T19:03:18.223Z</time>
      </trkpt>
      <trkpt lat="45.36468" lon="4.51653">
        <ele>1167.533234</ele>
        <time>2021-12-19T19:03:20.679Z</time>
      </trkpt>
      <trkpt lat="45.3647" lon="4.51645">
        <ele>1167.343867</ele>
        <time>2021-12-19T19:03:24.066Z</time>
      </trkpt>
      <trkpt lat="45.36466" lon="4.51636">
        <ele>1167.119095</ele>
        <time>2021-12-19T19:03:26.098Z</time>
      </trkpt>
      <trkpt lat="45.36417" lon="4.51657">
        <ele>1166.284548</ele>
        <time>2021-12-19T19:03:40.774Z</time>
      </trkpt>
      <trkpt lat="45.3637" lon="4.51667">
        <ele>1166.150577</ele>
        <time>2021-12-19T19:03:56.792Z</time>
      </trkpt>
      <trkpt lat="45.36342" lon="4.51653">
        <ele>1166.066464</ele>
        <time>2021-12-19T19:04:05.276Z</time>
      </trkpt>
      <trkpt lat="45.36334" lon="4.51654">
        <ele>1166.043914</ele>
        <time>2021-12-19T19:04:10.339Z</time>
      </trkpt>
      <trkpt lat="45.36349" lon="4.51627">
        <ele>1165.97534</ele>
        <time>2021-12-19T19:04:17.514Z</time>
      </trkpt>
      <trkpt lat="45.36382" lon="4.51554">
        <ele>1165.699157</ele>
        <time>2021-12-19T19:04:37.633Z</time>
      </trkpt>
      <trkpt lat="45.36482" lon="4.51397">
        <ele>1164.27252</ele>
        <time>2021-12-19T19:05:20.932Z</time>
      </trkpt>
      <trkpt lat="45.36495" lon="4.5134">
        <ele>1163.72776</ele>
        <time>2021-12-19T19:05:32.702Z</time>
      </trkpt>
      <trkpt lat="45.36514" lon="4.51219">
        <ele>1162.43823</ele>
        <time>2021-12-19T19:05:57.200Z</time>
      </trkpt>
      <trkpt lat="45.36516" lon="4.51148">
        <ele>1161.695171</ele>
        <time>2021-12-19T19:06:11.631Z</time>
      </trkpt>
      <trkpt lat="45.36485" lon="4.51064">
        <ele>1160.364434</ele>
        <time>2021-12-19T19:06:30.401Z</time>
      </trkpt>
      <trkpt lat="45.36449" lon="4.51026">
        <ele>1159.412435</ele>
        <time>2021-12-19T19:06:42.559Z</time>
      </trkpt>
      <trkpt lat="45.36413" lon="4.50989">
        <ele>1158.460433</ele>
        <time>2021-12-19T19:06:54.559Z</time>
      </trkpt>
      <trkpt lat="45.36348" lon="4.50933">
        <ele>1155.971584</ele>
        <time>2021-12-19T19:07:14.727Z</time>
      </trkpt>
      <trkpt lat="45.36302" lon="4.50903">
        <ele>1153.692228</ele>
        <time>2021-12-19T19:07:27.549Z</time>
      </trkpt>
      <trkpt lat="45.36249" lon="4.508">
        <ele>1149.678265</ele>
        <time>2021-12-19T19:07:48.829Z</time>
      </trkpt>
      <trkpt lat="45.3624" lon="4.50764">
        <ele>1148.27387</ele>
        <time>2021-12-19T19:07:54.914Z</time>
      </trkpt>
      <trkpt lat="45.3624" lon="4.50697">
        <ele>1145.721264</ele>
        <time>2021-12-19T19:08:05.847Z</time>
      </trkpt>
      <trkpt lat="45.36244" lon="4.50658">
        <ele>1144.21494</ele>
        <time>2021-12-19T19:08:12.252Z</time>
      </trkpt>
      <trkpt lat="45.36254" lon="4.50636">
        <ele>1143.229492</ele>
        <time>2021-12-19T19:08:16.831Z</time>
      </trkpt>
      <trkpt lat="45.36256" lon="4.50613">
        <ele>1142.352254</ele>
        <time>2021-12-19T19:08:20.520Z</time>
      </trkpt>
      <trkpt lat="45.36231" lon="4.50559">
        <ele>1139.91146</ele>
        <time>2021-12-19T19:08:31.774Z</time>
      </trkpt>
      <trkpt lat="45.36223" lon="4.50537">
        <ele>1139.720564</ele>
        <time>2021-12-19T19:08:36.277Z</time>
      </trkpt>
      <trkpt lat="45.36217" lon="4.50523">
        <ele>1139.652594</ele>
        <time>2021-12-19T19:08:38.892Z</time>
      </trkpt>
      <trkpt lat="45.36205" lon="4.50514">
        <ele>1139.560636</ele>
        <time>2021-12-19T19:08:43.062Z</time>
      </trkpt>
      <trkpt lat="45.36202" lon="4.50511">
        <ele>1139.542242</ele>
        <time>2021-12-19T19:08:43.869Z</time>
      </trkpt>
      <trkpt lat="45.36137" lon="4.50521">
        <ele>1139.123062</ele>
        <time>2021-12-19T19:09:02.230Z</time>
      </trkpt>
      <trkpt lat="45.36088" lon="4.50531">
        <ele>1138.810138</ele>
        <time>2021-12-19T19:09:21.725Z</time>
      </trkpt>
      <trkpt lat="45.36043" lon="4.50558">
        <ele>1139.92276</ele>
        <time>2021-12-19T19:09:44.616Z</time>
      </trkpt>
      <trkpt lat="45.36017" lon="4.5058">
        <ele>1141.22873</ele>
        <time>2021-12-19T19:09:59.686Z</time>
      </trkpt>
      <trkpt lat="45.35918" lon="4.50758">
        <ele>1148.49817</ele>
        <time>2021-12-19T19:11:30.955Z</time>
      </trkpt>
      <trkpt lat="45.35884" lon="4.50829">
        <ele>1151.628838</ele>
        <time>2021-12-19T19:12:07.203Z</time>
      </trkpt>
      <trkpt lat="45.35866" lon="4.50846">
        <ele>1152.74302</ele>
        <time>2021-12-19T19:12:19.915Z</time>
      </trkpt>
      <trkpt lat="45.3583" lon="4.50858">
        <ele>1154.705042</ele>
        <time>2021-12-19T19:12:41.657Z</time>
      </trkpt>
      <trkpt lat="45.35743" lon="4.50944">
        <ele>1160.109344</ele>
        <time>2021-12-19T19:13:38.854Z</time>
      </trkpt>
      <trkpt lat="45.3566" lon="4.51071">
        <ele>1166.373927</ele>
        <time>2021-12-19T19:14:51.334Z</time>
      </trkpt>
      <trkpt lat="45.35646" lon="4.51098">
        <ele>1167.676771</ele>
        <time>2021-12-19T19:15:04.787Z</time>
      </trkpt>
      <trkpt lat="45.35645" lon="4.51113">
        <ele>1168.230225</ele>
        <time>2021-12-19T19:15:11.412Z</time>
      </trkpt>
      <trkpt lat="45.35634" lon="4.51135">
        <ele>1169.302249</ele>
        <time>2021-12-19T19:15:21.567Z</time>
      </trkpt>
      <trkpt lat="45.35627" lon="4.51145">
        <ele>1169.818457</ele>
        <time>2021-12-19T19:15:28.408Z</time>
      </trkpt>
      <trkpt lat="45.35479" lon="4.51284">
        <ele>1179.347797</ele>
        <time>2021-12-19T19:17:13.110Z</time>
      </trkpt>
      <trkpt lat="45.35425" lon="4.51369">
        <ele>1183.564831</ele>
        <time>2021-12-19T19:17:55.367Z</time>
      </trkpt>
      <trkpt lat="45.35382" lon="4.51484">
        <ele>1189.270857</ele>
        <time>2021-12-19T19:18:57.151Z</time>
      </trkpt>
      <trkpt lat="45.35374" lon="4.51534">
        <ele>1191.573859</ele>
        <time>2021-12-19T19:19:21.246Z</time>
      </trkpt>
      <trkpt lat="45.35376" lon="4.51571">
        <ele>1193.240491</ele>
        <time>2021-12-19T19:19:36.616Z</time>
      </trkpt>
      <trkpt lat="45.35383" lon="4.51577">
        <ele>1193.752234</ele>
        <time>2021-12-19T19:19:43.537Z</time>
      </trkpt>
      <trkpt lat="45.35372" lon="4.51602">
        <ele>1195.085499</ele>
        <time>2021-12-19T19:19:55.736Z</time>
      </trkpt>
      <trkpt lat="45.35356" lon="4.51619">
        <ele>1196.114214</ele>
        <time>2021-12-19T19:20:09.161Z</time>
      </trkpt>
      <trkpt lat="45.35346" lon="4.5162">
        <ele>1196.49092</ele>
        <time>2021-12-19T19:20:14.631Z</time>
      </trkpt>
      <trkpt lat="45.35342" lon="4.5162">
        <ele>1196.634889</ele>
        <time>2021-12-19T19:20:17.001Z</time>
      </trkpt>
      <trkpt lat="45.35248" lon="4.51599">
        <ele>1200.152837</ele>
        <time>2021-12-19T19:21:11.293Z</time>
      </trkpt>
      <trkpt lat="45.35151" lon="4.51589">
        <ele>1202.50303</ele>
        <time>2021-12-19T19:21:45.924Z</time>
      </trkpt>
      <trkpt lat="45.35062" lon="4.51595">
        <ele>1202.781547</ele>
        <time>2021-12-19T19:22:12.992Z</time>
      </trkpt>
      <trkpt lat="45.34976" lon="4.51574">
        <ele>1203.712689</ele>
        <time>2021-12-19T19:22:43.712Z</time>
      </trkpt>
      <trkpt lat="45.34904" lon="4.51556">
        <ele>1205.38767</ele>
        <time>2021-12-19T19:23:14.740Z</time>
      </trkpt>
      <trkpt lat="45.34879" lon="4.51473">
        <ele>1206.839266</ele>
        <time>2021-12-19T19:23:44.927Z</time>
      </trkpt>
      <trkpt lat="45.34838" lon="4.51428">
        <ele>1207.857488</ele>
        <time>2021-12-19T19:24:10.828Z</time>
      </trkpt>
      <trkpt lat="45.34811" lon="4.51375">
        <ele>1208.741992</ele>
        <time>2021-12-19T19:24:34.062Z</time>
      </trkpt>
      <trkpt lat="45.34716" lon="4.51271">
        <ele>1210.471184</ele>
        <time>2021-12-19T19:25:14.399Z</time>
      </trkpt>
      <trkpt lat="45.34703" lon="4.51268">
        <ele>1210.468583</ele>
        <time>2021-12-19T19:25:18.795Z</time>
      </trkpt>
      <trkpt lat="45.34696" lon="4.5121">
        <ele>1210.460886</ele>
        <time>2021-12-19T19:25:30.970Z</time>
      </trkpt>
      <trkpt lat="45.34688" lon="4.51145">
        <ele>1210.452176</ele>
        <time>2021-12-19T19:25:45.129Z</time>
      </trkpt>
      <trkpt lat="45.34717" lon="4.51048">
        <ele>1210.92621</ele>
        <time>2021-12-19T19:26:09.537Z</time>
      </trkpt>
      <trkpt lat="45.3472" lon="4.50968">
        <ele>1212.138586</ele>
        <time>2021-12-19T19:26:31.989Z</time>
      </trkpt>
      <trkpt lat="45.34712" lon="4.50926">
        <ele>1212.811014</ele>
        <time>2021-12-19T19:26:46.732Z</time>
      </trkpt>
      <trkpt lat="45.34704" lon="4.50886">
        <ele>1213.433221</ele>
        <time>2021-12-19T19:27:00.630Z</time>
      </trkpt>
      <trkpt lat="45.34683" lon="4.50669">
        <ele>1217.144643</ele>
        <time>2021-12-19T19:28:12.236Z</time>
      </trkpt>
      <trkpt lat="45.3466" lon="4.5064">
        <ele>1217.915762</ele>
        <time>2021-12-19T19:28:24.752Z</time>
      </trkpt>
      <trkpt lat="45.34625" lon="4.50639">
        <ele>1218.802358</ele>
        <time>2021-12-19T19:28:39.103Z</time>
      </trkpt>
      <trkpt lat="45.34542" lon="4.50656">
        <ele>1221.38541</ele>
        <time>2021-12-19T19:29:13.039Z</time>
      </trkpt>
      <trkpt lat="45.34411" lon="4.50719">
        <ele>1226.978176</ele>
        <time>2021-12-19T19:30:25.085Z</time>
      </trkpt>
      <trkpt lat="45.34363" lon="4.50729">
        <ele>1230.029533</ele>
        <time>2021-12-19T19:30:56.132Z</time>
      </trkpt>
      <trkpt lat="45.34296" lon="4.50729">
        <ele>1234.240258</ele>
        <time>2021-12-19T19:31:41.691Z</time>
      </trkpt>
      <trkpt lat="45.34241" lon="4.50741">
        <ele>1237.470513</ele>
        <time>2021-12-19T19:32:21.416Z</time>
      </trkpt>
      <trkpt lat="45.34169" lon="4.50723">
        <ele>1241.526349</ele>
        <time>2021-12-19T19:33:09.654Z</time>
      </trkpt>
      <trkpt lat="45.34142" lon="4.50693">
        <ele>1243.408729</ele>
        <time>2021-12-19T19:33:29.264Z</time>
      </trkpt>
      <trkpt lat="45.34103" lon="4.50617">
        <ele>1245.463258</ele>
        <time>2021-12-19T19:33:58.944Z</time>
      </trkpt>
      <trkpt lat="45.3409" lon="4.50573">
        <ele>1245.303774</ele>
        <time>2021-12-19T19:34:10.727Z</time>
      </trkpt>
      <trkpt lat="45.34039" lon="4.50523">
        <ele>1245.006194</ele>
        <time>2021-12-19T19:34:29.102Z</time>
      </trkpt>
      <trkpt lat="45.34041" lon="4.50488">
        <ele>1244.888688</ele>
        <time>2021-12-19T19:34:35.650Z</time>
      </trkpt>
      <trkpt lat="45.34037" lon="4.50449">
        <ele>1244.754881</ele>
        <time>2021-12-19T19:34:42.962Z</time>
      </trkpt>
      <trkpt lat="45.34044" lon="4.50376">
        <ele>1243.736166</ele>
        <time>2021-12-19T19:34:56.125Z</time>
      </trkpt>
      <trkpt lat="45.34036" lon="4.50265">
        <ele>1242.020093</ele>
        <time>2021-12-19T19:35:16.847Z</time>
      </trkpt>
      <trkpt lat="45.34028" lon="4.50233">
        <ele>1241.510004</ele>
        <time>2021-12-19T19:35:23.363Z</time>
      </trkpt>
      <trkpt lat="45.34011" lon="4.50199">
        <ele>1240.877769</ele>
        <time>2021-12-19T19:35:31.975Z</time>
      </trkpt>
      <trkpt lat="45.33984" lon="4.50155">
        <ele>1241.121402</ele>
        <time>2021-12-19T19:35:45.563Z</time>
      </trkpt>
      <trkpt lat="45.33911" lon="4.50064">
        <ele>1241.878406</ele>
        <time>2021-12-19T19:36:21.325Z</time>
      </trkpt>
      <trkpt lat="45.33871" lon="4.50012">
        <ele>1242.322134</ele>
        <time>2021-12-19T19:36:43.463Z</time>
      </trkpt>
      <trkpt lat="45.33846" lon="4.50071">
        <ele>1242.76386</ele>
        <time>2021-12-19T19:37:01.503Z</time>
      </trkpt>
      <trkpt lat="45.33827" lon="4.50105">
        <ele>1243.046818</ele>
        <time>2021-12-19T19:37:12.963Z</time>
      </trkpt>
      <trkpt lat="45.33812" lon="4.50111">
        <ele>1243.190846</ele>
        <time>2021-12-19T19:37:18.644Z</time>
      </trkpt>
      <trkpt lat="45.33734" lon="4.50115">
        <ele>1243.901133</ele>
        <time>2021-12-19T19:37:45.379Z</time>
      </trkpt>
      <trkpt lat="45.33687" lon="4.50129">
        <ele>1244.284938</ele>
        <time>2021-12-19T19:38:01.765Z</time>
      </trkpt>
      <trkpt lat="45.33592" lon="4.50131">
        <ele>1245.032139</ele>
        <time>2021-12-19T19:38:36.025Z</time>
      </trkpt>
      <trkpt lat="45.33568" lon="4.50138">
        <ele>1245.223099</ele>
        <time>2021-12-19T19:38:45.161Z</time>
      </trkpt>
      <trkpt lat="45.33523" lon="4.50181">
        <ele>1245.344692</ele>
        <time>2021-12-19T19:39:05.639Z</time>
      </trkpt>
      <trkpt lat="45.33466" lon="4.50216">
        <ele>1245.402462</ele>
        <time>2021-12-19T19:39:27.529Z</time>
      </trkpt>
      <trkpt lat="45.33438" lon="4.50227">
        <ele>1245.429963</ele>
        <time>2021-12-19T19:39:36.749Z</time>
      </trkpt>
      <trkpt lat="45.33357" lon="4.50293">
        <ele>1244.280016</ele>
        <time>2021-12-19T19:40:03.109Z</time>
      </trkpt>
      <trkpt lat="45.33313" lon="4.50312">
        <ele>1243.164012</ele>
        <time>2021-12-19T19:40:15.602Z</time>
      </trkpt>
      <trkpt lat="45.33266" lon="4.50369">
        <ele>1241.680424</ele>
        <time>2021-12-19T19:40:31.906Z</time>
      </trkpt>
      <trkpt lat="45.33241" lon="4.50396">
        <ele>1240.754913</ele>
        <time>2021-12-19T19:40:39.952Z</time>
      </trkpt>
      <trkpt lat="45.33229" lon="4.50401">
        <ele>1236.1</ele>
        <time>2021-12-19T19:40:43.389Z</time>
      </trkpt>
      <trkpt lat="45.33227" lon="4.50375">
        <ele>1239.23802</ele>
        <time>2021-12-19T19:40:48.672Z</time>
      </trkpt>
      <trkpt lat="45.33222" lon="4.5036">
        <ele>1238.73067</ele>
        <time>2021-12-19T19:40:51.399Z</time>
      </trkpt>
      <trkpt lat="45.33214" lon="4.50352">
        <ele>1238.301796</ele>
        <time>2021-12-19T19:40:54.023Z</time>
      </trkpt>
      <trkpt lat="45.33168" lon="4.50365">
        <ele>1236.271664</ele>
        <time>2021-12-19T19:41:05.383Z</time>
      </trkpt>
      <trkpt lat="45.33078" lon="4.50343">
        <ele>1231</ele>
        <time>2021-12-19T19:41:29.624Z</time>
      </trkpt>
      <trkpt lat="45.33066" lon="4.50343">
        <ele>1229.6</ele>
        <time>2021-12-19T19:41:31.734Z</time>
      </trkpt>
      <trkpt lat="45.33067" lon="4.50293">
        <ele>1229.5</ele>
        <time>2021-12-19T19:41:41.767Z</time>
      </trkpt>
      <trkpt lat="45.33058" lon="4.50221">
        <ele>1228.188633</ele>
        <time>2021-12-19T19:41:54.578Z</time>
      </trkpt>
      <trkpt lat="45.33041" lon="4.50167">
        <ele>1226.56776</ele>
        <time>2021-12-19T19:42:05.135Z</time>
      </trkpt>
      <trkpt lat="45.32998" lon="4.50079">
        <ele>1225.310988</ele>
        <time>2021-12-19T19:42:25.495Z</time>
      </trkpt>
      <trkpt lat="45.32938" lon="4.49981">
        <ele>1223.982782</ele>
        <time>2021-12-19T19:42:51.768Z</time>
      </trkpt>
      <trkpt lat="45.32847" lon="4.49856">
        <ele>1224.476553</ele>
        <time>2021-12-19T19:43:34.696Z</time>
      </trkpt>
      <trkpt lat="45.32825" lon="4.49805">
        <ele>1224.78068</ele>
        <time>2021-12-19T19:43:50.938Z</time>
      </trkpt>
      <trkpt lat="45.32822" lon="4.49767">
        <ele>1224.981155</ele>
        <time>2021-12-19T19:44:01.897Z</time>
      </trkpt>
      <trkpt lat="45.32829" lon="4.49693">
        <ele>1225.247751</ele>
        <time>2021-12-19T19:44:22.651Z</time>
      </trkpt>
      <trkpt lat="45.32878" lon="4.49572">
        <ele>1225.726484</ele>
        <time>2021-12-19T19:44:57.756Z</time>
      </trkpt>
      <trkpt lat="45.32933" lon="4.49462">
        <ele>1223.762482</ele>
        <time>2021-12-19T19:45:24.756Z</time>
      </trkpt>
      <trkpt lat="45.32936" lon="4.49457">
        <ele>1223.607474</ele>
        <time>2021-12-19T19:45:25.879Z</time>
      </trkpt>
      <trkpt lat="45.32959" lon="4.49362">
        <ele>1221.178344</ele>
        <time>2021-12-19T19:45:43.557Z</time>
      </trkpt>
      <trkpt lat="45.32938" lon="4.49227">
        <ele>1216.033934</ele>
        <time>2021-12-19T19:46:06.387Z</time>
      </trkpt>
      <trkpt lat="45.32933" lon="4.49029">
        <ele>1206.724422</ele>
        <time>2021-12-19T19:46:37.866Z</time>
      </trkpt>
      <trkpt lat="45.32911" lon="4.48975">
        <ele>1204.208334</ele>
        <time>2021-12-19T19:46:47.873Z</time>
      </trkpt>
      <trkpt lat="45.32851" lon="4.48877">
        <ele>1198.859499</ele>
        <time>2021-12-19T19:47:10.015Z</time>
      </trkpt>
      <trkpt lat="45.3282" lon="4.48828">
        <ele>1195.931664</ele>
        <time>2021-12-19T19:47:20.987Z</time>
      </trkpt>
      <trkpt lat="45.32796" lon="4.4873">
        <ele>1190.649093</ele>
        <time>2021-12-19T19:47:37.954Z</time>
      </trkpt>
      <trkpt lat="45.32794" lon="4.48724">
        <ele>1190.28091</ele>
        <time>2021-12-19T19:47:39.164Z</time>
      </trkpt>
      <trkpt lat="45.32755" lon="4.48594">
        <ele>1182.644968</ele>
        <time>2021-12-19T19:48:01.035Z</time>
      </trkpt>
      <trkpt lat="45.32758" lon="4.48455">
        <ele>1172.065815</ele>
        <time>2021-12-19T19:48:21.713Z</time>
      </trkpt>
      <trkpt lat="45.32767" lon="4.48384">
        <ele>1166.610179</ele>
        <time>2021-12-19T19:48:32.379Z</time>
      </trkpt>
      <trkpt lat="45.3276" lon="4.48279">
        <ele>1159.528643</ele>
        <time>2021-12-19T19:48:48.089Z</time>
      </trkpt>
      <trkpt lat="45.3273" lon="4.48224">
        <ele>1155.121173</ele>
        <time>2021-12-19T19:48:58.469Z</time>
      </trkpt>
      <trkpt lat="45.32687" lon="4.48163">
        <ele>1139.2</ele>
        <time>2021-12-19T19:49:15.298Z</time>
      </trkpt>
      <trkpt lat="45.32676" lon="4.48148">
        <ele>1138.5</ele>
        <time>2021-12-19T19:49:16.243Z</time>
      </trkpt>
      <trkpt lat="45.32677" lon="4.48136">
        <ele>1148.340189</ele>
        <time>2021-12-19T19:49:17.452Z</time>
      </trkpt>
      <trkpt lat="45.32673" lon="4.48132">
        <ele>1148.400706</ele>
        <time>2021-12-19T19:49:18.154Z</time>
      </trkpt>
      <trkpt lat="45.32649" lon="4.4813">
        <ele>1148.672943</ele>
        <time>2021-12-19T19:49:21.343Z</time>
      </trkpt>
      <trkpt lat="45.32634" lon="4.48131">
        <ele>1135.1</ele>
        <time>2021-12-19T19:49:24.595Z</time>
      </trkpt>
      <trkpt lat="45.32623" lon="4.48132">
        <ele>1134.5</ele>
        <time>2021-12-19T19:49:26.565Z</time>
      </trkpt>
      <trkpt lat="45.3261" lon="4.48132">
        <ele>1149.129652</ele>
        <time>2021-12-19T19:49:28.730Z</time>
      </trkpt>
      <trkpt lat="45.32605" lon="4.48126">
        <ele>1149.2127</ele>
        <time>2021-12-19T19:49:31.193Z</time>
      </trkpt>
      <trkpt lat="45.326" lon="4.48119">
        <ele>1149.28654</ele>
        <time>2021-12-19T19:49:33.381Z</time>
      </trkpt>
      <trkpt lat="45.32596" lon="4.48135">
        <ele>1149.42796</ele>
        <time>2021-12-19T19:49:37.093Z</time>
      </trkpt>
      <trkpt lat="45.32589" lon="4.48148">
        <ele>1149.551796</ele>
        <time>2021-12-19T19:49:39.330Z</time>
      </trkpt>
      <trkpt lat="45.32575" lon="4.48159">
        <ele>1149.735936</ele>
        <time>2021-12-19T19:49:46.270Z</time>
      </trkpt>
      <trkpt lat="45.32559" lon="4.48167">
        <ele>1149.935364</ele>
        <time>2021-12-19T19:49:51.912Z</time>
      </trkpt>
      <trkpt lat="45.3248" lon="4.48143">
        <ele>1155.709156</ele>
        <time>2021-12-19T19:50:54.601Z</time>
      </trkpt>
      <trkpt lat="45.32461" lon="4.48117">
        <ele>1158.528703</ele>
        <time>2021-12-19T19:51:17.215Z</time>
      </trkpt>
      <trkpt lat="45.32434" lon="4.48001">
        <ele>1167.76982</ele>
        <time>2021-12-19T19:52:39.127Z</time>
      </trkpt>
      <trkpt lat="45.32409" lon="4.47929">
        <ele>1173.165375</ele>
        <time>2021-12-19T19:53:29.172Z</time>
      </trkpt>
      <trkpt lat="45.32294" lon="4.47806">
        <ele>1186.312076</ele>
        <time>2021-12-19T19:55:19.260Z</time>
      </trkpt>
      <trkpt lat="45.3222" lon="4.4776">
        <ele>1190.155681</ele>
        <time>2021-12-19T19:56:06.308Z</time>
      </trkpt>
      <trkpt lat="45.32158" lon="4.477">
        <ele>1193.739785</ele>
        <time>2021-12-19T19:56:43.020Z</time>
      </trkpt>
      <trkpt lat="45.32102" lon="4.47658">
        <ele>1196.186283</ele>
        <time>2021-12-19T19:57:13.710Z</time>
      </trkpt>
      <trkpt lat="45.32083" lon="4.47626">
        <ele>1197.162056</ele>
        <time>2021-12-19T19:57:27.025Z</time>
      </trkpt>
      <trkpt lat="45.32026" lon="4.47667">
        <ele>1199.332732</ele>
        <time>2021-12-19T19:57:58.402Z</time>
      </trkpt>
      <trkpt lat="45.32002" lon="4.47682">
        <ele>1200.20966</ele>
        <time>2021-12-19T19:58:11.181Z</time>
      </trkpt>
      <trkpt lat="45.31912" lon="4.47691">
        <ele>1202.847215</ele>
        <time>2021-12-19T19:58:57.237Z</time>
      </trkpt>
      <trkpt lat="45.31843" lon="4.47716">
        <ele>1204.83429</ele>
        <time>2021-12-19T19:59:29.729Z</time>
      </trkpt>
      <trkpt lat="45.31821" lon="4.4773">
        <ele>1205.51046</ele>
        <time>2021-12-19T19:59:39.480Z</time>
      </trkpt>
      <trkpt lat="45.31754" lon="4.47793">
        <ele>1205.825576</ele>
        <time>2021-12-19T20:00:08.673Z</time>
      </trkpt>
      <trkpt lat="45.31714" lon="4.47838">
        <ele>1205.806552</ele>
        <time>2021-12-19T20:00:24.554Z</time>
      </trkpt>
      <trkpt lat="45.31674" lon="4.47897">
        <ele>1205.785056</ele>
        <time>2021-12-19T20:00:41.206Z</time>
      </trkpt>
      <trkpt lat="45.31648" lon="4.47923">
        <ele>1205.260138</ele>
        <time>2021-12-19T20:00:50.133Z</time>
      </trkpt>
      <trkpt lat="45.31593" lon="4.47949">
        <ele>1204.206319</ele>
        <time>2021-12-19T20:01:06.400Z</time>
      </trkpt>
      <trkpt lat="45.31566" lon="4.47956">
        <ele>1203.701069</ele>
        <time>2021-12-19T20:01:14.063Z</time>
      </trkpt>
      <trkpt lat="45.31511" lon="4.47999">
        <ele>1202.569138</ele>
        <time>2021-12-19T20:01:31.144Z</time>
      </trkpt>
      <trkpt lat="45.3148" lon="4.4808">
        <ele>1200.713479</ele>
        <time>2021-12-19T20:01:48.600Z</time>
      </trkpt>
      <trkpt lat="45.3144" lon="4.48144">
        <ele>1198.989373</ele>
        <time>2021-12-19T20:02:04.290Z</time>
      </trkpt>
      <trkpt lat="45.31357" lon="4.48143">
        <ele>1196.114208</ele>
        <time>2021-12-19T20:02:25.669Z</time>
      </trkpt>
      <trkpt lat="45.31188" lon="4.48111">
        <ele>1188.141906</ele>
        <time>2021-12-19T20:03:06.838Z</time>
      </trkpt>
      <trkpt lat="45.31117" lon="4.48106">
        <ele>1184.405902</ele>
        <time>2021-12-19T20:03:23.675Z</time>
      </trkpt>
      <trkpt lat="45.31078" lon="4.48102">
        <ele>1182.33212</ele>
        <time>2021-12-19T20:03:33.020Z</time>
      </trkpt>
      <trkpt lat="45.30911" lon="4.48028">
        <ele>1173.767307</ele>
        <time>2021-12-19T20:04:14.774Z</time>
      </trkpt>
      <trkpt lat="45.30795" lon="4.48004">
        <ele>1169.632498</ele>
        <time>2021-12-19T20:04:44.166Z</time>
      </trkpt>
      <trkpt lat="45.30743" lon="4.47969">
        <ele>1168.308174</ele>
        <time>2021-12-19T20:04:59.638Z</time>
      </trkpt>
      <trkpt lat="45.30688" lon="4.47968">
        <ele>1167.064648</ele>
        <time>2021-12-19T20:05:15.221Z</time>
      </trkpt>
      <trkpt lat="45.30645" lon="4.47953">
        <ele>1167.407592</ele>
        <time>2021-12-19T20:05:29.308Z</time>
      </trkpt>
      <trkpt lat="45.30545" lon="4.47876">
        <ele>1169.09421</ele>
        <time>2021-12-19T20:06:15.752Z</time>
      </trkpt>
      <trkpt lat="45.30457" lon="4.47861">
        <ele>1171.318076</ele>
        <time>2021-12-19T20:06:57.165Z</time>
      </trkpt>
      <trkpt lat="45.30453" lon="4.47856">
        <ele>1171.493054</ele>
        <time>2021-12-19T20:07:00.483Z</time>
      </trkpt>
      <trkpt lat="45.30453" lon="4.47865">
        <ele>1171.700946</ele>
        <time>2021-12-19T20:07:04.507Z</time>
      </trkpt>
      <trkpt lat="45.30439" lon="4.47975">
        <ele>1174.077026</ele>
        <time>2021-12-19T20:07:41.746Z</time>
      </trkpt>
      <trkpt lat="45.30408" lon="4.48118">
        <ele>1176.239114</ele>
        <time>2021-12-19T20:08:28.818Z</time>
      </trkpt>
      <trkpt lat="45.30347" lon="4.48345">
        <ele>1178.024171</ele>
        <time>2021-12-19T20:09:31.100Z</time>
      </trkpt>
      <trkpt lat="45.30287" lon="4.48515">
        <ele>1178.092474</ele>
        <time>2021-12-19T20:10:12.167Z</time>
      </trkpt>
      <trkpt lat="45.30274" lon="4.48548">
        <ele>1178.046134</ele>
        <time>2021-12-19T20:10:20.092Z</time>
      </trkpt>
      <trkpt lat="45.30252" lon="4.48578">
        <ele>1177.99301</ele>
        <time>2021-12-19T20:10:29.229Z</time>
      </trkpt>
      <trkpt lat="45.30229" lon="4.48595">
        <ele>1177.946755</ele>
        <time>2021-12-19T20:10:37.346Z</time>
      </trkpt>
      <trkpt lat="45.30212" lon="4.4859">
        <ele>1177.917414</ele>
        <time>2021-12-19T20:10:42.518Z</time>
      </trkpt>
      <trkpt lat="45.30143" lon="4.48523">
        <ele>1178.126221</ele>
        <time>2021-12-19T20:11:09.925Z</time>
      </trkpt>
      <trkpt lat="45.30089" lon="4.4845">
        <ele>1179.132315</ele>
        <time>2021-12-19T20:11:38.136Z</time>
      </trkpt>
      <trkpt lat="45.29939" lon="4.48334">
        <ele>1182.610708</ele>
        <time>2021-12-19T20:12:49.312Z</time>
      </trkpt>
      <trkpt lat="45.29887" lon="4.48252">
        <ele>1184.714135</ele>
        <time>2021-12-19T20:13:26.313Z</time>
      </trkpt>
      <trkpt lat="45.2985" lon="4.48167">
        <ele>1187.314022</ele>
        <time>2021-12-19T20:14:01.597Z</time>
      </trkpt>
      <trkpt lat="45.2985" lon="4.48127">
        <ele>1188.440812</ele>
        <time>2021-12-19T20:14:15.990Z</time>
      </trkpt>
      <trkpt lat="45.29839" lon="4.48107">
        <ele>1189.14304</ele>
        <time>2021-12-19T20:14:26.655Z</time>
      </trkpt>
      <trkpt lat="45.29827" lon="4.48088">
        <ele>1189.840596</ele>
        <time>2021-12-19T20:14:34.609Z</time>
      </trkpt>
      <trkpt lat="45.29821" lon="4.48083">
        <ele>1190.119726</ele>
        <time>2021-12-19T20:14:38.466Z</time>
      </trkpt>
      <trkpt lat="45.29819" lon="4.48085">
        <ele>1190.226757</ele>
        <time>2021-12-19T20:14:41.101Z</time>
      </trkpt>
      <trkpt lat="45.29741" lon="4.4807">
        <ele>1193.069828</ele>
        <time>2021-12-19T20:15:13.505Z</time>
      </trkpt>
      <trkpt lat="45.29536" lon="4.48162">
        <ele>1198.598957</ele>
        <time>2021-12-19T20:16:26.039Z</time>
      </trkpt>
      <trkpt lat="45.29519" lon="4.4817">
        <ele>1198.864725</ele>
        <time>2021-12-19T20:16:30.790Z</time>
      </trkpt>
      <trkpt lat="45.29472" lon="4.48189">
        <ele>1199.592077</ele>
        <time>2021-12-19T20:16:43.069Z</time>
      </trkpt>
      <trkpt lat="45.29455" lon="4.48194">
        <ele>1199.845978</ele>
        <time>2021-12-19T20:16:47.460Z</time>
      </trkpt>
      <trkpt lat="45.29418" lon="4.48159">
        <ele>1200.343953</ele>
        <time>2021-12-19T20:16:57.094Z</time>
      </trkpt>
      <trkpt lat="45.2939" lon="4.48145">
        <ele>1200.40976</ele>
        <time>2021-12-19T20:17:03.476Z</time>
      </trkpt>
      <trkpt lat="45.29367" lon="4.48141">
        <ele>1200.459412</ele>
        <time>2021-12-19T20:17:07.945Z</time>
      </trkpt>
      <trkpt lat="45.29359" lon="4.48143">
        <ele>1200.476965</ele>
        <time>2021-12-19T20:17:09.949Z</time>
      </trkpt>
      <trkpt lat="45.29349" lon="4.48144">
        <ele>1202.6</ele>
        <time>2021-12-19T20:19:08.013Z</time>
      </trkpt>
      <trkpt lat="45.2935" lon="4.48128">
        <ele>1209.413696</ele>
        <time>2021-12-19T20:19:14.724Z</time>
      </trkpt>
      <trkpt lat="45.29334" lon="4.48135">
        <ele>1210.288809</ele>
        <time>2021-12-19T20:19:27.602Z</time>
      </trkpt>
      <trkpt lat="45.29324" lon="4.48133">
        <ele>1210.805273</ele>
        <time>2021-12-19T20:19:33.695Z</time>
      </trkpt>
      <trkpt lat="45.29308" lon="4.48113">
        <ele>1212.230506</ele>
        <time>2021-12-19T20:19:49.245Z</time>
      </trkpt>
      <trkpt lat="45.29317" lon="4.48005">
        <ele>1218.335103</ele>
        <time>2021-12-19T20:20:48.105Z</time>
      </trkpt>
      <trkpt lat="45.29241" lon="4.48007">
        <ele>1224.45623</ele>
        <time>2021-12-19T20:21:43.435Z</time>
      </trkpt>
      <trkpt lat="45.29202" lon="4.47992">
        <ele>1227.248481</ele>
        <time>2021-12-19T20:22:09.200Z</time>
      </trkpt>
      <trkpt lat="45.29111" lon="4.47993">
        <ele>1232.916922</ele>
        <time>2021-12-19T20:23:05.517Z</time>
      </trkpt>
      <trkpt lat="45.29084" lon="4.47965">
        <ele>1235.04835</ele>
        <time>2021-12-19T20:23:27.173Z</time>
      </trkpt>
      <trkpt lat="45.29079" lon="4.47945">
        <ele>1235.981509</ele>
        <time>2021-12-19T20:23:37.656Z</time>
      </trkpt>
      <trkpt lat="45.29094" lon="4.47891">
        <ele>1238.122683</ele>
        <time>2021-12-19T20:24:01.371Z</time>
      </trkpt>
      <trkpt lat="45.29096" lon="4.47868">
        <ele>1238.865627</ele>
        <time>2021-12-19T20:24:09.795Z</time>
      </trkpt>
      <trkpt lat="45.29087" lon="4.4784">
        <ele>1239.861612</ele>
        <time>2021-12-19T20:24:23.039Z</time>
      </trkpt>
      <trkpt lat="45.29096" lon="4.4782">
        <ele>1240.64639</ele>
        <time>2021-12-19T20:24:31.930Z</time>
      </trkpt>
      <trkpt lat="45.29096" lon="4.4782">
        <ele>1240.64639</ele>
        <time>2021-12-19T20:24:32.181Z</time>
      </trkpt>
      <trkpt lat="45.29102" lon="4.47822">
        <ele>1240.910644</ele>
        <time>2021-12-19T20:24:35.588Z</time>
      </trkpt>
      <trkpt lat="45.29111" lon="4.47818">
        <ele>1241.353752</ele>
        <time>2021-12-19T20:24:39.264Z</time>
      </trkpt>
      <trkpt lat="45.29124" lon="4.47784">
        <ele>1242.576805</ele>
        <time>2021-12-19T20:24:51.701Z</time>
      </trkpt>
      <trkpt lat="45.29168" lon="4.47721">
        <ele>1245.23122</ele>
        <time>2021-12-19T20:25:14.875Z</time>
      </trkpt>
      <trkpt lat="45.29206" lon="4.47674">
        <ele>1245.362973</ele>
        <time>2021-12-19T20:25:31.696Z</time>
      </trkpt>
      <trkpt lat="45.29255" lon="4.47626">
        <ele>1245.518065</ele>
        <time>2021-12-19T20:25:43.123Z</time>
      </trkpt>
      <trkpt lat="45.29267" lon="4.47612">
        <ele>1245.560262</ele>
        <time>2021-12-19T20:25:46.148Z</time>
      </trkpt>
      <trkpt lat="45.29291" lon="4.4761">
        <ele>1245.621887</ele>
        <time>2021-12-19T20:25:52.895Z</time>
      </trkpt>
      <trkpt lat="45.2933" lon="4.47598">
        <ele>1245.274242</ele>
        <time>2021-12-19T20:26:04.044Z</time>
      </trkpt>
      <trkpt lat="45.29426" lon="4.47533">
        <ele>1242.160696</ele>
        <time>2021-12-19T20:26:31.882Z</time>
      </trkpt>
      <trkpt lat="45.29492" lon="4.47495">
        <ele>1239.678584</ele>
        <time>2021-12-19T20:26:50.096Z</time>
      </trkpt>
      <trkpt lat="45.29508" lon="4.47494">
        <ele>1238.734583</ele>
        <time>2021-12-19T20:26:53.929Z</time>
      </trkpt>
      <trkpt lat="45.29508" lon="4.47505">
        <ele>1238.275636</ele>
        <time>2021-12-19T20:26:55.792Z</time>
      </trkpt>
      <trkpt lat="45.29485" lon="4.47561">
        <ele>1235.493162</ele>
        <time>2021-12-19T20:27:06.865Z</time>
      </trkpt>
      <trkpt lat="45.29483" lon="4.47614">
        <ele>1233.216952</ele>
        <time>2021-12-19T20:27:15.480Z</time>
      </trkpt>
      <trkpt lat="45.2947" lon="4.47665">
        <ele>1230.889354</ele>
        <time>2021-12-19T20:27:24.146Z</time>
      </trkpt>
      <trkpt lat="45.29468" lon="4.47755">
        <ele>1225.932794</ele>
        <time>2021-12-19T20:27:38.012Z</time>
      </trkpt>
      <trkpt lat="45.29467" lon="4.47831">
        <ele>1221.164874</ele>
        <time>2021-12-19T20:27:49.531Z</time>
      </trkpt>
      <trkpt lat="45.29481" lon="4.47881">
        <ele>1217.7778</ele>
        <time>2021-12-19T20:27:57.813Z</time>
      </trkpt>
      <trkpt lat="45.29492" lon="4.47896">
        <ele>1216.426521</ele>
        <time>2021-12-19T20:28:01.276Z</time>
      </trkpt>
      <trkpt lat="45.29508" lon="4.47906">
        <ele>1214.894647</ele>
        <time>2021-12-19T20:28:04.920Z</time>
      </trkpt>
      <trkpt lat="45.29517" lon="4.47898">
        <ele>1213.946162</ele>
        <time>2021-12-19T20:28:07.312Z</time>
      </trkpt>
      <trkpt lat="45.29549" lon="4.47884">
        <ele>1211.510938</ele>
        <time>2021-12-19T20:28:14.648Z</time>
      </trkpt>
      <trkpt lat="45.29568" lon="4.47911">
        <ele>1209.613999</ele>
        <time>2021-12-19T20:28:20.603Z</time>
      </trkpt>
      <trkpt lat="45.29584" lon="4.47919">
        <ele>1208.436732</ele>
        <time>2021-12-19T20:28:24.482Z</time>
      </trkpt>
      <trkpt lat="45.29601" lon="4.4792">
        <ele>1207.240868</ele>
        <time>2021-12-19T20:28:28.307Z</time>
      </trkpt>
      <trkpt lat="45.29611" lon="4.47913">
        <ele>1206.476687</ele>
        <time>2021-12-19T20:28:30.810Z</time>
      </trkpt>
      <trkpt lat="45.29641" lon="4.4791">
        <ele>1204.323032</ele>
        <time>2021-12-19T20:28:37.820Z</time>
      </trkpt>
      <trkpt lat="45.2968" lon="4.47921">
        <ele>1201.529294</ele>
        <time>2021-12-19T20:28:47.401Z</time>
      </trkpt>
      <trkpt lat="45.29692" lon="4.47918">
        <ele>1200.697117</ele>
        <time>2021-12-19T20:28:50.233Z</time>
      </trkpt>
      <trkpt lat="45.29738" lon="4.47983">
        <ele>1197.008788</ele>
        <time>2021-12-19T20:28:59.756Z</time>
      </trkpt>
      <trkpt lat="45.29755" lon="4.48011">
        <ele>1195.496619</ele>
        <time>2021-12-19T20:29:03.652Z</time>
      </trkpt>
      <trkpt lat="45.29771" lon="4.48037">
        <ele>1194.123839</ele>
        <time>2021-12-19T20:29:07.109Z</time>
      </trkpt>
      <trkpt lat="45.29794" lon="4.48058">
        <ele>1192.563953</ele>
        <time>2021-12-19T20:29:11.088Z</time>
      </trkpt>
      <trkpt lat="45.29805" lon="4.48068">
        <ele>1191.789046</ele>
        <time>2021-12-19T20:29:14.289Z</time>
      </trkpt>
      <trkpt lat="45.29811" lon="4.48076">
        <ele>1191.3168</ele>
        <time>2021-12-19T20:29:16.317Z</time>
      </trkpt>
      <trkpt lat="45.29821" lon="4.48083">
        <ele>1190.676443</ele>
        <time>2021-12-19T20:29:18.921Z</time>
      </trkpt>
      <trkpt lat="45.29827" lon="4.48088">
        <ele>1190.339918</ele>
        <time>2021-12-19T20:29:20.598Z</time>
      </trkpt>
      <trkpt lat="45.29839" lon="4.48107">
        <ele>1189.619672</ele>
        <time>2021-12-19T20:29:24.978Z</time>
      </trkpt>
      <trkpt lat="45.2985" lon="4.48127">
        <ele>1188.894602</ele>
        <time>2021-12-19T20:29:29.194Z</time>
      </trkpt>
      <trkpt lat="45.2985" lon="4.48167">
        <ele>1187.73116</ele>
        <time>2021-12-19T20:29:36.228Z</time>
      </trkpt>
      <trkpt lat="45.29887" lon="4.48252">
        <ele>1184.872729</ele>
        <time>2021-12-19T20:29:53.675Z</time>
      </trkpt>
      <trkpt lat="45.29939" lon="4.48334">
        <ele>1182.37538</ele>
        <time>2021-12-19T20:30:14.327Z</time>
      </trkpt>
      <trkpt lat="45.30089" lon="4.4845">
        <ele>1178.997326</ele>
        <time>2021-12-19T20:31:00.970Z</time>
      </trkpt>
      <trkpt lat="45.30143" lon="4.48523">
        <ele>1178.36252</ele>
        <time>2021-12-19T20:31:22.407Z</time>
      </trkpt>
      <trkpt lat="45.30212" lon="4.4859">
        <ele>1177.716842</ele>
        <time>2021-12-19T20:31:48.705Z</time>
      </trkpt>
      <trkpt lat="45.30229" lon="4.48595">
        <ele>1177.776749</ele>
        <time>2021-12-19T20:31:54.244Z</time>
      </trkpt>
      <trkpt lat="45.30252" lon="4.48578">
        <ele>1177.871189</ele>
        <time>2021-12-19T20:32:03.048Z</time>
      </trkpt>
      <trkpt lat="45.30274" lon="4.48548">
        <ele>1177.979652</ele>
        <time>2021-12-19T20:32:13.448Z</time>
      </trkpt>
      <trkpt lat="45.30287" lon="4.48515">
        <ele>1178.074265</ele>
        <time>2021-12-19T20:32:22.743Z</time>
      </trkpt>
      <trkpt lat="45.30347" lon="4.48345">
        <ele>1178.031915</ele>
        <time>2021-12-19T20:33:07.906Z</time>
      </trkpt>
      <trkpt lat="45.30408" lon="4.48118">
        <ele>1176.280346</ele>
        <time>2021-12-19T20:33:58.205Z</time>
      </trkpt>
      <trkpt lat="45.30439" lon="4.47975">
        <ele>1173.942313</ele>
        <time>2021-12-19T20:34:26.224Z</time>
      </trkpt>
      <trkpt lat="45.30453" lon="4.47865">
        <ele>1171.833639</ele>
        <time>2021-12-19T20:34:46.394Z</time>
      </trkpt>
      <trkpt lat="45.30453" lon="4.47856">
        <ele>1171.634666</ele>
        <time>2021-12-19T20:34:48.017Z</time>
      </trkpt>
      <trkpt lat="45.30457" lon="4.47861">
        <ele>1171.467194</ele>
        <time>2021-12-19T20:34:49.387Z</time>
      </trkpt>
      <trkpt lat="45.30545" lon="4.47876">
        <ele>1168.886961</ele>
        <time>2021-12-19T20:35:12.438Z</time>
      </trkpt>
      <trkpt lat="45.30645" lon="4.47953">
        <ele>1167.785706</ele>
        <time>2021-12-19T20:35:43.701Z</time>
      </trkpt>
      <trkpt lat="45.30688" lon="4.47968">
        <ele>1167.58779</ele>
        <time>2021-12-19T20:35:58.485Z</time>
      </trkpt>
      <trkpt lat="45.30743" lon="4.47969">
        <ele>1167.655453</ele>
        <time>2021-12-19T20:36:19.231Z</time>
      </trkpt>
      <trkpt lat="45.30795" lon="4.48004">
        <ele>1169.564948</ele>
        <time>2021-12-19T20:36:44.717Z</time>
      </trkpt>
      <trkpt lat="45.30911" lon="4.48028">
        <ele>1173.512117</ele>
        <time>2021-12-19T20:37:45.326Z</time>
      </trkpt>
      <trkpt lat="45.31078" lon="4.48102">
        <ele>1182.34281</ele>
        <time>2021-12-19T20:39:25.943Z</time>
      </trkpt>
      <trkpt lat="45.31117" lon="4.48106">
        <ele>1184.384856</ele>
        <time>2021-12-19T20:39:49.247Z</time>
      </trkpt>
      <trkpt lat="45.31188" lon="4.48111">
        <ele>1188.067729</ele>
        <time>2021-12-19T20:40:31.257Z</time>
      </trkpt>
      <trkpt lat="45.31357" lon="4.48143">
        <ele>1195.872537</ele>
        <time>2021-12-19T20:42:06.808Z</time>
      </trkpt>
      <trkpt lat="45.3144" lon="4.48144">
        <ele>1199.300542</ele>
        <time>2021-12-19T20:42:47.890Z</time>
      </trkpt>
      <trkpt lat="45.3148" lon="4.4808">
        <ele>1200.77947</ele>
        <time>2021-12-19T20:43:15.122Z</time>
      </trkpt>
      <trkpt lat="45.31511" lon="4.47999">
        <ele>1202.394847</ele>
        <time>2021-12-19T20:43:43.589Z</time>
      </trkpt>
      <trkpt lat="45.31566" lon="4.47956">
        <ele>1203.839362</ele>
        <time>2021-12-19T20:44:09.720Z</time>
      </trkpt>
      <trkpt lat="45.31593" lon="4.47949">
        <ele>1204.242775</ele>
        <time>2021-12-19T20:44:21.334Z</time>
      </trkpt>
      <trkpt lat="45.31648" lon="4.47923">
        <ele>1205.084191</ele>
        <time>2021-12-19T20:44:44.587Z</time>
      </trkpt>
      <trkpt lat="45.31674" lon="4.47897">
        <ele>1205.538432</ele>
        <time>2021-12-19T20:44:56.778Z</time>
      </trkpt>
      <trkpt lat="45.31714" lon="4.47838">
        <ele>1206.252552</ele>
        <time>2021-12-19T20:45:18.452Z</time>
      </trkpt>
      <trkpt lat="45.31754" lon="4.47793">
        <ele>1205.821257</ele>
        <time>2021-12-19T20:45:35.205Z</time>
      </trkpt>
      <trkpt lat="45.31821" lon="4.4773">
        <ele>1205.137526</ele>
        <time>2021-12-19T20:45:59.096Z</time>
      </trkpt>
      <trkpt lat="45.31843" lon="4.47716">
        <ele>1204.934483</ele>
        <time>2021-12-19T20:46:05.767Z</time>
      </trkpt>
      <trkpt lat="45.31912" lon="4.47691">
        <ele>1203.070347</ele>
        <time>2021-12-19T20:46:24.262Z</time>
      </trkpt>
      <trkpt lat="45.32002" lon="4.47682">
        <ele>1200.097441</ele>
        <time>2021-12-19T20:46:46.952Z</time>
      </trkpt>
      <trkpt lat="45.32026" lon="4.47667">
        <ele>1199.240416</ele>
        <time>2021-12-19T20:46:53.578Z</time>
      </trkpt>
      <trkpt lat="45.32083" lon="4.47626">
        <ele>1197.071255</ele>
        <time>2021-12-19T20:47:10.072Z</time>
      </trkpt>
      <trkpt lat="45.32102" lon="4.47658">
        <ele>1196.09139</ele>
        <time>2021-12-19T20:47:17.671Z</time>
      </trkpt>
      <trkpt lat="45.32158" lon="4.477">
        <ele>1193.927718</ele>
        <time>2021-12-19T20:47:34.161Z</time>
      </trkpt>
      <trkpt lat="45.3222" lon="4.4776">
        <ele>1190.305363</ele>
        <time>2021-12-19T20:47:53.293Z</time>
      </trkpt>
      <trkpt lat="45.32294" lon="4.47806">
        <ele>1185.441102</ele>
        <time>2021-12-19T20:48:12.431Z</time>
      </trkpt>
      <trkpt lat="45.32409" lon="4.47929">
        <ele>1172.957422</ele>
        <time>2021-12-19T20:48:43.983Z</time>
      </trkpt>
      <trkpt lat="45.32434" lon="4.48001">
        <ele>1167.118284</ele>
        <time>2021-12-19T20:48:55.716Z</time>
      </trkpt>
      <trkpt lat="45.32461" lon="4.48117">
        <ele>1158.924539</ele>
        <time>2021-12-19T20:49:13.634Z</time>
      </trkpt>
      <trkpt lat="45.3248" lon="4.48143">
        <ele>1156.63312</ele>
        <time>2021-12-19T20:49:19.186Z</time>
      </trkpt>
      <trkpt lat="45.32559" lon="4.48167">
        <ele>1149.655867</ele>
        <time>2021-12-19T20:49:36.947Z</time>
      </trkpt>
      <trkpt lat="45.32575" lon="4.48159">
        <ele>1148.1509</ele>
        <time>2021-12-19T20:49:39.287Z</time>
      </trkpt>
      <trkpt lat="45.32601" lon="4.48145">
        <ele>1148.117409</ele>
        <time>2021-12-19T20:49:43.289Z</time>
      </trkpt>
      <trkpt lat="45.3261" lon="4.48143">
        <ele>1134</ele>
        <time>2021-12-19T20:49:44.888Z</time>
      </trkpt>
      <trkpt lat="45.32615" lon="4.48141">
        <ele>1134.3</ele>
        <time>2021-12-19T20:49:46.916Z</time>
      </trkpt>
      <trkpt lat="45.32624" lon="4.48141">
        <ele>1134.9</ele>
        <time>2021-12-19T20:49:48.981Z</time>
      </trkpt>
      <trkpt lat="45.32636" lon="4.48138">
        <ele>1135.7</ele>
        <time>2021-12-19T20:49:50.879Z</time>
      </trkpt>
      <trkpt lat="45.32657" lon="4.48136">
        <ele>1150.225237</ele>
        <time>2021-12-19T20:49:58.095Z</time>
      </trkpt>
      <trkpt lat="45.32665" lon="4.48149">
        <ele>1137.5</ele>
        <time>2021-12-19T20:50:01.933Z</time>
      </trkpt>
      <trkpt lat="45.32671" lon="4.48155">
        <ele>1137.8</ele>
        <time>2021-12-19T20:50:03.544Z</time>
      </trkpt>
      <trkpt lat="45.32674" lon="4.48156">
        <ele>1138.1</ele>
        <time>2021-12-19T20:50:05.558Z</time>
      </trkpt>
      <trkpt lat="45.32676" lon="4.48159">
        <ele>1138.2</ele>
        <time>2021-12-19T20:50:10.745Z</time>
      </trkpt>
      <trkpt lat="45.3273" lon="4.48224">
        <ele>1153.978376</ele>
        <time>2021-12-19T20:51:04.335Z</time>
      </trkpt>
      <trkpt lat="45.3276" lon="4.48279">
        <ele>1159.112163</ele>
        <time>2021-12-19T20:51:44.532Z</time>
      </trkpt>
      <trkpt lat="45.32767" lon="4.48384">
        <ele>1166.985623</ele>
        <time>2021-12-19T20:52:49.745Z</time>
      </trkpt>
      <trkpt lat="45.32758" lon="4.48455">
        <ele>1172.3441</ele>
        <time>2021-12-19T20:53:34.516Z</time>
      </trkpt>
      <trkpt lat="45.32755" lon="4.48594">
        <ele>1181.895907</ele>
        <time>2021-12-19T20:55:01.314Z</time>
      </trkpt>
      <trkpt lat="45.32794" lon="4.48724">
        <ele>1191.01828</ele>
        <time>2021-12-19T20:56:14.531Z</time>
      </trkpt>
      <trkpt lat="45.32796" lon="4.4873">
        <ele>1191.322899</ele>
        <time>2021-12-19T20:56:17.520Z</time>
      </trkpt>
      <trkpt lat="45.3282" lon="4.48828">
        <ele>1195.693483</ele>
        <time>2021-12-19T20:57:01.989Z</time>
      </trkpt>
      <trkpt lat="45.32851" lon="4.48877">
        <ele>1198.492362</ele>
        <time>2021-12-19T20:57:29.831Z</time>
      </trkpt>
      <trkpt lat="45.32911" lon="4.48975">
        <ele>1204.261164</ele>
        <time>2021-12-19T20:58:22.021Z</time>
      </trkpt>
      <trkpt lat="45.32933" lon="4.49029">
        <ele>1207.068538</ele>
        <time>2021-12-19T20:58:49.506Z</time>
      </trkpt>
      <trkpt lat="45.32938" lon="4.49227">
        <ele>1215.754963</ele>
        <time>2021-12-19T21:00:25.990Z</time>
      </trkpt>
      <trkpt lat="45.32959" lon="4.49362">
        <ele>1221.36369</ele>
        <time>2021-12-19T21:01:25.203Z</time>
      </trkpt>
      <trkpt lat="45.32936" lon="4.49457">
        <ele>1223.765799</ele>
        <time>2021-12-19T21:02:01.141Z</time>
      </trkpt>
      <trkpt lat="45.32878" lon="4.49572">
        <ele>1225.378028</ele>
        <time>2021-12-19T21:02:40.225Z</time>
      </trkpt>
      <trkpt lat="45.32829" lon="4.49693">
        <ele>1225.433434</ele>
        <time>2021-12-19T21:03:09.355Z</time>
      </trkpt>
      <trkpt lat="45.32822" lon="4.49767">
        <ele>1224.881786</ele>
        <time>2021-12-19T21:03:24.245Z</time>
      </trkpt>
      <trkpt lat="45.32825" lon="4.49805">
        <ele>1224.593613</ele>
        <time>2021-12-19T21:03:31.929Z</time>
      </trkpt>
      <trkpt lat="45.32847" lon="4.49856">
        <ele>1224.156446</ele>
        <time>2021-12-19T21:03:43.748Z</time>
      </trkpt>
      <trkpt lat="45.32938" lon="4.49981">
        <ele>1224.178165</ele>
        <time>2021-12-19T21:04:22.372Z</time>
      </trkpt>
      <trkpt lat="45.32998" lon="4.50079">
        <ele>1224.473325</ele>
        <time>2021-12-19T21:04:57.111Z</time>
      </trkpt>
      <trkpt lat="45.33041" lon="4.50167">
        <ele>1225.045714</ele>
        <time>2021-12-19T21:05:29.397Z</time>
      </trkpt>
      <trkpt lat="45.33058" lon="4.50221">
        <ele>1225.359027</ele>
        <time>2021-12-19T21:05:42.530Z</time>
      </trkpt>
      <trkpt lat="45.33063" lon="4.50293">
        <ele>1228.9</ele>
        <time>2021-12-19T21:05:57.122Z</time>
      </trkpt>
      <trkpt lat="45.33063" lon="4.50358">
        <ele>1229.5</ele>
        <time>2021-12-19T21:06:08.379Z</time>
      </trkpt>
      <trkpt lat="45.33056" lon="4.50374">
        <ele>1229</ele>
      </trkpt>
      <trkpt lat="45.33024" lon="4.50384">
        <ele>1226.5</ele>
        <time>2021-12-19T21:06:11.471Z</time>
      </trkpt>
      <trkpt lat="45.3299" lon="4.50394">
        <ele>1224.4</ele>
        <time>2021-12-19T21:06:15.525Z</time>
      </trkpt>
      <trkpt lat="45.32921" lon="4.50415">
        <ele>1213.63166</ele>
        <time>2021-12-19T21:06:46.646Z</time>
      </trkpt>
      <trkpt lat="45.32899" lon="4.50431">
        <ele>1211.785963</ele>
        <time>2021-12-19T21:06:52.155Z</time>
      </trkpt>
      <trkpt lat="45.32855" lon="4.50519">
        <ele>1206.261852</ele>
        <time>2021-12-19T21:07:09.286Z</time>
      </trkpt>
      <trkpt lat="45.32847" lon="4.50553">
        <ele>1204.430687</ele>
        <time>2021-12-19T21:07:15.019Z</time>
      </trkpt>
      <trkpt lat="45.32852" lon="4.50613">
        <ele>1202.678418</ele>
        <time>2021-12-19T21:07:24.699Z</time>
      </trkpt>
      <trkpt lat="45.32851" lon="4.50669">
        <ele>1201.17452</ele>
        <time>2021-12-19T21:07:33.979Z</time>
      </trkpt>
      <trkpt lat="45.32837" lon="4.50799">
        <ele>1197.607594</ele>
        <time>2021-12-19T21:07:58.452Z</time>
      </trkpt>
      <trkpt lat="45.32823" lon="4.50879">
        <ele>1198.814327</ele>
        <time>2021-12-19T21:08:16.539Z</time>
      </trkpt>
      <trkpt lat="45.3284" lon="4.50896">
        <ele>1199.479689</ele>
        <time>2021-12-19T21:08:24.972Z</time>
      </trkpt>
      <trkpt lat="45.32843" lon="4.50899">
        <ele>1199.606492</ele>
        <time>2021-12-19T21:08:27.570Z</time>
      </trkpt>
      <trkpt lat="45.3287" lon="4.50908">
        <ele>1200.503537</ele>
        <time>2021-12-19T21:08:39.855Z</time>
      </trkpt>
      <trkpt lat="45.32924" lon="4.50906">
        <ele>1202.217019</ele>
        <time>2021-12-19T21:09:09.584Z</time>
      </trkpt>
      <trkpt lat="45.32988" lon="4.50894">
        <ele>1206.409884</ele>
        <time>2021-12-19T21:09:57.153Z</time>
      </trkpt>
      <trkpt lat="45.33058" lon="4.50841">
        <ele>1213.162107</ele>
        <time>2021-12-19T21:10:57.915Z</time>
      </trkpt>
      <trkpt lat="45.33085" lon="4.50798">
        <ele>1216.623401</ele>
        <time>2021-12-19T21:11:29.443Z</time>
      </trkpt>
      <trkpt lat="45.33112" lon="4.50725">
        <ele>1220.966319</ele>
        <time>2021-12-19T21:12:13.456Z</time>
      </trkpt>
      <trkpt lat="45.33121" lon="4.50655">
        <ele>1224.346625</ele>
        <time>2021-12-19T21:12:48.751Z</time>
      </trkpt>
      <trkpt lat="45.33125" lon="4.50582">
        <ele>1227.891871</ele>
        <time>2021-12-19T21:13:23.258Z</time>
      </trkpt>
      <trkpt lat="45.33147" lon="4.50486">
        <ele>1230.587542</ele>
        <time>2021-12-19T21:14:02.447Z</time>
      </trkpt>
      <trkpt lat="45.3319" lon="4.50445">
        <ele>1230.380318</ele>
        <time>2021-12-19T21:14:21.472Z</time>
      </trkpt>
      <trkpt lat="45.33225" lon="4.50413">
        <ele>1235.3</ele>
        <time>2021-12-19T21:14:35.224Z</time>
      </trkpt>
      <trkpt lat="45.33194" lon="4.50544">
        <ele>1226.428774</ele>
        <time>2021-12-19T21:15:00.500Z</time>
      </trkpt>
      <trkpt lat="45.33193" lon="4.50568">
        <ele>1225.287056</ele>
        <time>2021-12-19T21:15:04.340Z</time>
      </trkpt>
      <trkpt lat="45.33198" lon="4.50592">
        <ele>1224.102572</ele>
        <time>2021-12-19T21:15:08.260Z</time>
      </trkpt>
      <trkpt lat="45.33223" lon="4.50622">
        <ele>1221.863436</ele>
        <time>2021-12-19T21:15:15.542Z</time>
      </trkpt>
      <trkpt lat="45.3325" lon="4.50634">
        <ele>1219.958124</ele>
        <time>2021-12-19T21:15:21.713Z</time>
      </trkpt>
      <trkpt lat="45.33353" lon="4.50605">
        <ele>1213.532767</ele>
        <time>2021-12-19T21:15:45.304Z</time>
      </trkpt>
      <trkpt lat="45.33393" lon="4.50588">
        <ele>1211.112489</ele>
        <time>2021-12-19T21:15:54.799Z</time>
      </trkpt>
      <trkpt lat="45.33507" lon="4.50567">
        <ele>1207.685229</ele>
        <time>2021-12-19T21:16:24.311Z</time>
      </trkpt>
      <trkpt lat="45.3354" lon="4.50554">
        <ele>1207.959751</ele>
        <time>2021-12-19T21:16:34.840Z</time>
      </trkpt>
      <trkpt lat="45.33559" lon="4.50545">
        <ele>1208.120661</ele>
        <time>2021-12-19T21:16:42.697Z</time>
      </trkpt>
      <trkpt lat="45.33594" lon="4.50531">
        <ele>1208.41098</ele>
        <time>2021-12-19T21:16:57.322Z</time>
      </trkpt>
      <trkpt lat="45.33616" lon="4.50533">
        <ele>1208.588041</ele>
        <time>2021-12-19T21:17:06.844Z</time>
      </trkpt>
      <trkpt lat="45.33659" lon="4.50552">
        <ele>1210.886218</ele>
        <time>2021-12-19T21:17:36.370Z</time>
      </trkpt>
      <trkpt lat="45.33718" lon="4.50524">
        <ele>1215.677208</ele>
        <time>2021-12-19T21:18:21.836Z</time>
      </trkpt>
      <trkpt lat="45.3374" lon="4.50502">
        <ele>1217.73734</ele>
        <time>2021-12-19T21:18:42.777Z</time>
      </trkpt>
      <trkpt lat="45.3375" lon="4.50501">
        <ele>1218.485836</ele>
        <time>2021-12-19T21:18:49.231Z</time>
      </trkpt>
      <trkpt lat="45.33768" lon="4.50513">
        <ele>1220.013137</ele>
        <time>2021-12-19T21:19:05.224Z</time>
      </trkpt>
      <trkpt lat="45.33785" lon="4.50562">
        <ele>1222.956933</ele>
        <time>2021-12-19T21:19:33.637Z</time>
      </trkpt>
      <trkpt lat="45.33793" lon="4.50604">
        <ele>1225.091017</ele>
        <time>2021-12-19T21:19:55.652Z</time>
      </trkpt>
      <trkpt lat="45.33795" lon="4.50671">
        <ele>1228.359796</ele>
        <time>2021-12-19T21:20:28.703Z</time>
      </trkpt>
      <trkpt lat="45.33811" lon="4.50816">
        <ele>1235.556795</ele>
        <time>2021-12-19T21:21:33.750Z</time>
      </trkpt>
      <trkpt lat="45.33812" lon="4.5088">
        <ele>1238.698365</ele>
        <time>2021-12-19T21:21:59.793Z</time>
      </trkpt>
      <trkpt lat="45.33808" lon="4.50932">
        <ele>1241.276319</ele>
        <time>2021-12-19T21:22:21.971Z</time>
      </trkpt>
      <trkpt lat="45.33822" lon="4.50977">
        <ele>1243.707731</ele>
        <time>2021-12-19T21:22:44.408Z</time>
      </trkpt>
      <trkpt lat="45.33922" lon="4.51042">
        <ele>1251.88307</ele>
        <time>2021-12-19T21:24:09.523Z</time>
      </trkpt>
      <trkpt lat="45.33941" lon="4.51064">
        <ele>1253.833053</ele>
        <time>2021-12-19T21:24:29.255Z</time>
      </trkpt>
      <trkpt lat="45.3395" lon="4.51065">
        <ele>1254.57199</ele>
        <time>2021-12-19T21:24:36.210Z</time>
      </trkpt>
      <trkpt lat="45.33964" lon="4.51053">
        <ele>1255.861507</ele>
        <time>2021-12-19T21:24:49.115Z</time>
      </trkpt>
      <trkpt lat="45.33988" lon="4.51052">
        <ele>1257.719019</ele>
        <time>2021-12-19T21:25:05.517Z</time>
      </trkpt>
      <trkpt lat="45.34024" lon="4.51087">
        <ele>1261.216605</ele>
        <time>2021-12-19T21:25:35.511Z</time>
      </trkpt>
      <trkpt lat="45.34027" lon="4.51106">
        <ele>1262.084448</ele>
        <time>2021-12-19T21:25:43.437Z</time>
      </trkpt>
      <trkpt lat="45.34036" lon="4.51169">
        <ele>1262.970258</ele>
        <time>2021-12-19T21:26:08.397Z</time>
      </trkpt>
      <trkpt lat="45.34064" lon="4.5125">
        <ele>1264.205146</ele>
        <time>2021-12-19T21:26:36.411Z</time>
      </trkpt>
      <trkpt lat="45.34109" lon="4.51332">
        <ele>1265.485307</ele>
        <time>2021-12-19T21:26:57.350Z</time>
      </trkpt>
      <trkpt lat="45.34155" lon="4.51443">
        <ele>1264.706115</ele>
        <time>2021-12-19T21:27:22.959Z</time>
      </trkpt>
      <trkpt lat="45.34166" lon="4.51502">
        <ele>1264.340477</ele>
        <time>2021-12-19T21:27:35.711Z</time>
      </trkpt>
      <trkpt lat="45.34213" lon="4.51623">
        <ele>1264.072975</ele>
        <time>2021-12-19T21:28:07.922Z</time>
      </trkpt>
      <trkpt lat="45.34228" lon="4.5169">
        <ele>1264.143634</ele>
        <time>2021-12-19T21:28:24.183Z</time>
      </trkpt>
      <trkpt lat="45.34234" lon="4.51745">
        <ele>1264.200319</ele>
        <time>2021-12-19T21:28:37.167Z</time>
      </trkpt>
      <trkpt lat="45.34241" lon="4.51769">
        <ele>1264.226265</ele>
        <time>2021-12-19T21:28:43.348Z</time>
      </trkpt>
      <trkpt lat="45.34239" lon="4.518">
        <ele>1264.248626</ele>
        <time>2021-12-19T21:28:49.974Z</time>
      </trkpt>
      <trkpt lat="45.34188" lon="4.52001">
        <ele>1264.213268</ele>
        <time>2021-12-19T21:29:36.766Z</time>
      </trkpt>
      <trkpt lat="45.34173" lon="4.5206">
        <ele>1264.424799</ele>
        <time>2021-12-19T21:29:51.374Z</time>
      </trkpt>
      <trkpt lat="45.34151" lon="4.52142">
        <ele>1265.087551</ele>
        <time>2021-12-19T21:30:14.059Z</time>
      </trkpt>
      <trkpt lat="45.34133" lon="4.52188">
        <ele>1265.481171</ele>
        <time>2021-12-19T21:30:28.210Z</time>
      </trkpt>
      <trkpt lat="45.34114" lon="4.5221">
        <ele>1265.750606</ele>
        <time>2021-12-19T21:30:38.029Z</time>
      </trkpt>
      <trkpt lat="45.34047" lon="4.52339">
        <ele>1266.825409</ele>
        <time>2021-12-19T21:31:22.636Z</time>
      </trkpt>
      <trkpt lat="45.33954" lon="4.52457">
        <ele>1268.110396</ele>
        <time>2021-12-19T21:32:04.555Z</time>
      </trkpt>
      <trkpt lat="45.3393" lon="4.52481">
        <ele>1268.626179</ele>
        <time>2021-12-19T21:32:13.944Z</time>
      </trkpt>
      <trkpt lat="45.3384" lon="4.5263">
        <ele>1271.182788</ele>
        <time>2021-12-19T21:33:12.280Z</time>
      </trkpt>
      <trkpt lat="45.33839" lon="4.52646">
        <ele>1271.625575</ele>
        <time>2021-12-19T21:33:17.757Z</time>
      </trkpt>
      <trkpt lat="45.33888" lon="4.5273">
        <ele>1274.682359</ele>
        <time>2021-12-19T21:33:57.737Z</time>
      </trkpt>
      <trkpt lat="45.33924" lon="4.52763">
        <ele>1276.35871</ele>
        <time>2021-12-19T21:34:21.178Z</time>
      </trkpt>
      <trkpt lat="45.33937" lon="4.52766">
        <ele>1276.879786</ele>
        <time>2021-12-19T21:34:28.550Z</time>
      </trkpt>
      <trkpt lat="45.34075" lon="4.52722">
        <ele>1282.633832</ele>
        <time>2021-12-19T21:35:44.729Z</time>
      </trkpt>
      <trkpt lat="45.34128" lon="4.52692">
        <ele>1284.955449</ele>
        <time>2021-12-19T21:36:12.587Z</time>
      </trkpt>
      <trkpt lat="45.34169" lon="4.52693">
        <ele>1286.4942</ele>
        <time>2021-12-19T21:36:32.788Z</time>
      </trkpt>
      <trkpt lat="45.34198" lon="4.52698">
        <ele>1287.566311</ele>
        <time>2021-12-19T21:36:47.223Z</time>
      </trkpt>
      <trkpt lat="45.34236" lon="4.52723">
        <ele>1289.13045</ele>
        <time>2021-12-19T21:37:08.632Z</time>
      </trkpt>
      <trkpt lat="45.3428" lon="4.52729">
        <ele>1290.788783</ele>
        <time>2021-12-19T21:37:32.288Z</time>
      </trkpt>
      <trkpt lat="45.34306" lon="4.52732">
        <ele>1291.757533</ele>
        <time>2021-12-19T21:37:45.934Z</time>
      </trkpt>
      <trkpt lat="45.34356" lon="4.52782">
        <ele>1292.777713</ele>
        <time>2021-12-19T21:38:14.695Z</time>
      </trkpt>
      <trkpt lat="45.34399" lon="4.52803">
        <ele>1293.445305</ele>
        <time>2021-12-19T21:38:34.235Z</time>
      </trkpt>
      <trkpt lat="45.3449" lon="4.52795">
        <ele>1294.357621</ele>
        <time>2021-12-19T21:39:04.192Z</time>
      </trkpt>
      <trkpt lat="45.34609" lon="4.52754">
        <ele>1291.848572</ele>
        <time>2021-12-19T21:39:36.654Z</time>
      </trkpt>
      <trkpt lat="45.34705" lon="4.52704">
        <ele>1290.79045</ele>
        <time>2021-12-19T21:40:03.776Z</time>
      </trkpt>
      <trkpt lat="45.3475" lon="4.5262">
        <ele>1290.653431</ele>
        <time>2021-12-19T21:40:26.825Z</time>
      </trkpt>
      <trkpt lat="45.34816" lon="4.52625">
        <ele>1291.258547</ele>
        <time>2021-12-19T21:40:54.104Z</time>
      </trkpt>
      <trkpt lat="45.34862" lon="4.52619">
        <ele>1293.273281</ele>
        <time>2021-12-19T21:41:17.563Z</time>
      </trkpt>
      <trkpt lat="45.34991" lon="4.52568">
        <ele>1298.930392</ele>
        <time>2021-12-19T21:42:35.276Z</time>
      </trkpt>
      <trkpt lat="45.35052" lon="4.52579">
        <ele>1301.24214</ele>
        <time>2021-12-19T21:43:10.324Z</time>
      </trkpt>
      <trkpt lat="45.35106" lon="4.52567">
        <ele>1303.324353</ele>
        <time>2021-12-19T21:43:38.589Z</time>
      </trkpt>
      <trkpt lat="45.35193" lon="4.5258">
        <ele>1304.477339</ele>
        <time>2021-12-19T21:44:15.512Z</time>
      </trkpt>
      <trkpt lat="45.35296" lon="4.52629">
        <ele>1302.78014</ele>
        <time>2021-12-19T21:44:45.866Z</time>
      </trkpt>
      <trkpt lat="45.35416" lon="4.52752">
        <ele>1295.593025</ele>
        <time>2021-12-19T21:45:20.501Z</time>
      </trkpt>
      <trkpt lat="45.35468" lon="4.52765">
        <ele>1292.552549</ele>
        <time>2021-12-19T21:45:32.658Z</time>
      </trkpt>
      <trkpt lat="45.35509" lon="4.52767">
        <ele>1290.598687</ele>
        <time>2021-12-19T21:45:42.178Z</time>
      </trkpt>
      <trkpt lat="45.35527" lon="4.52772">
        <ele>1289.742572</ele>
        <time>2021-12-19T21:45:46.744Z</time>
      </trkpt>
      <trkpt lat="45.35559" lon="4.52783">
        <ele>1288.288294</ele>
        <time>2021-12-19T21:45:54.571Z</time>
      </trkpt>
      <trkpt lat="45.35637" lon="4.52785">
        <ele>1284.823711</ele>
        <time>2021-12-19T21:46:13.846Z</time>
      </trkpt>
      <trkpt lat="45.35705" lon="4.52773">
        <ele>1282.607734</ele>
        <time>2021-12-19T21:46:32.391Z</time>
      </trkpt>
      <trkpt lat="45.35746" lon="4.52752">
        <ele>1281.402948</ele>
        <time>2021-12-19T21:46:44.583Z</time>
      </trkpt>
      <trkpt lat="45.35788" lon="4.52714">
        <ele>1280.040542</ele>
        <time>2021-12-19T21:46:57.903Z</time>
      </trkpt>
      <trkpt lat="45.35821" lon="4.52701">
        <ele>1279.102345</ele>
        <time>2021-12-19T21:47:06.793Z</time>
      </trkpt>
      <trkpt lat="45.35913" lon="4.52647">
        <ele>1273.905083</ele>
        <time>2021-12-19T21:47:31.428Z</time>
      </trkpt>
      <trkpt lat="45.35972" lon="4.52637">
        <ele>1270.757136</ele>
        <time>2021-12-19T21:47:45.081Z</time>
      </trkpt>
      <trkpt lat="45.36012" lon="4.52614">
        <ele>1268.185816</ele>
        <time>2021-12-19T21:47:54.749Z</time>
      </trkpt>
      <trkpt lat="45.36055" lon="4.52567">
        <ele>1264.470196</ele>
        <time>2021-12-19T21:48:06.980Z</time>
      </trkpt>
      <trkpt lat="45.36093" lon="4.52538">
        <ele>1261.526809</ele>
        <time>2021-12-19T21:48:16.640Z</time>
      </trkpt>
      <trkpt lat="45.36107" lon="4.52539">
        <ele>1260.580204</ele>
        <time>2021-12-19T21:48:19.773Z</time>
      </trkpt>
      <trkpt lat="45.36134" lon="4.52547">
        <ele>1258.688878</ele>
        <time>2021-12-19T21:48:26.047Z</time>
      </trkpt>
      <trkpt lat="45.36371" lon="4.52607">
        <ele>1247.231042</ele>
        <time>2021-12-19T21:49:24.659Z</time>
      </trkpt>
      <trkpt lat="45.36398" lon="4.52622">
        <ele>1246.338638</ele>
        <time>2021-12-19T21:49:32.057Z</time>
      </trkpt>
      <trkpt lat="45.36442" lon="4.52631">
        <ele>1244.940826</ele>
        <time>2021-12-19T21:49:43.710Z</time>
      </trkpt>
      <trkpt lat="45.36465" lon="4.52641">
        <ele>1244.180457</ele>
        <time>2021-12-19T21:49:50.030Z</time>
      </trkpt>
      <trkpt lat="45.36485" lon="4.5264">
        <ele>1243.521993</ele>
        <time>2021-12-19T21:49:55.637Z</time>
      </trkpt>
      <trkpt lat="45.36507" lon="4.52628">
        <ele>1242.787432</ele>
        <time>2021-12-19T21:50:01.957Z</time>
      </trkpt>
      <trkpt lat="45.36545" lon="4.52589">
        <ele>1242.074047</ele>
        <time>2021-12-19T21:50:14.897Z</time>
      </trkpt>
      <trkpt lat="45.36564" lon="4.52527">
        <ele>1241.34597</ele>
        <time>2021-12-19T21:50:27.960Z</time>
      </trkpt>
      <trkpt lat="45.36587" lon="4.5244">
        <ele>1240.350057</ele>
        <time>2021-12-19T21:50:46.834Z</time>
      </trkpt>
      <trkpt lat="45.36596" lon="4.5241">
        <ele>1239.974798</ele>
        <time>2021-12-19T21:50:53.760Z</time>
      </trkpt>
      <trkpt lat="45.36606" lon="4.52378">
        <ele>1239.405211</ele>
        <time>2021-12-19T21:51:01.225Z</time>
      </trkpt>
      <trkpt lat="45.36605" lon="4.5237">
        <ele>1239.275376</ele>
        <time>2021-12-19T21:51:02.633Z</time>
      </trkpt>
      <trkpt lat="45.36605" lon="4.5236">
        <ele>1239.124805</ele>
        <time>2021-12-19T21:51:05.564Z</time>
      </trkpt>
      <trkpt lat="45.36614" lon="4.52353">
        <ele>1238.883332</ele>
        <time>2021-12-19T21:51:08.598Z</time>
      </trkpt>
      <trkpt lat="45.36605" lon="4.5236">
        <ele>1238.641859</ele>
        <time>2021-12-19T21:51:11.680Z</time>
      </trkpt>
      <trkpt lat="45.36605" lon="4.5237">
        <ele>1238.491287</ele>
        <time>2021-12-19T21:51:13.323Z</time>
      </trkpt>
      <trkpt lat="45.36606" lon="4.52378">
        <ele>1238.361452</ele>
        <time>2021-12-19T21:51:15.916Z</time>
      </trkpt>
      <trkpt lat="45.36598" lon="4.5242">
        <ele>1242.4</ele>
        <time>2021-12-19T21:51:22.837Z</time>
      </trkpt>
      <trkpt lat="45.36584" lon="4.5247">
        <ele>1241.9</ele>
        <time>2021-12-19T21:51:29.077Z</time>
      </trkpt>
      <trkpt lat="45.36572" lon="4.52533">
        <ele>1241</ele>
        <time>2021-12-19T21:51:45.649Z</time>
      </trkpt>
      <trkpt lat="45.36611" lon="4.52569">
        <ele>1231.404508</ele>
        <time>2021-12-19T21:51:59.074Z</time>
      </trkpt>
      <trkpt lat="45.36747" lon="4.52682">
        <ele>1219.819971</ele>
        <time>2021-12-19T21:52:33.400Z</time>
      </trkpt>
      <trkpt lat="45.36779" lon="4.52728">
        <ele>1216.278799</ele>
        <time>2021-12-19T21:52:43.471Z</time>
      </trkpt>
      <trkpt lat="45.36792" lon="4.52737">
        <ele>1215.185183</ele>
        <time>2021-12-19T21:52:46.467Z</time>
      </trkpt>
      <trkpt lat="45.36793" lon="4.52741">
        <ele>1214.922366</ele>
        <time>2021-12-19T21:52:46.904Z</time>
      </trkpt>
      <trkpt lat="45.36798" lon="4.52739">
        <ele>1214.535505</ele>
        <time>2021-12-19T21:52:48.102Z</time>
      </trkpt>
      <trkpt lat="45.368" lon="4.52746">
        <ele>1214.114879</ele>
        <time>2021-12-19T21:52:49.036Z</time>
      </trkpt>
      <trkpt lat="45.36805" lon="4.5275">
        <ele>1213.672966</ele>
        <time>2021-12-19T21:52:50.090Z</time>
      </trkpt>
      <trkpt lat="45.36813" lon="4.52755">
        <ele>1212.996039</ele>
        <time>2021-12-19T21:52:51.541Z</time>
      </trkpt>
      <trkpt lat="45.368" lon="4.528">
        <ele>1210.389891</ele>
        <time>2021-12-19T21:52:55.836Z</time>
      </trkpt>
      <trkpt lat="45.36809" lon="4.528">
        <ele>1209.684334</ele>
        <time>2021-12-19T21:52:56.954Z</time>
      </trkpt>
      <trkpt lat="45.36809" lon="4.52803">
        <ele>1209.536556</ele>
        <time>2021-12-19T21:52:57.197Z</time>
      </trkpt>
      <trkpt lat="45.36814" lon="4.52805">
        <ele>1209.128119</ele>
        <time>2021-12-19T21:52:57.928Z</time>
      </trkpt>
      <trkpt lat="45.36816" lon="4.52802">
        <ele>1208.976673</ele>
        <time>2021-12-19T21:52:58.211Z</time>
      </trkpt>
      <trkpt lat="45.3683" lon="4.52812">
        <ele>1208.942573</ele>
        <time>2021-12-19T21:53:00.337Z</time>
      </trkpt>
      <trkpt lat="45.36835" lon="4.52811">
        <ele>1208.942573</ele>
        <time>2021-12-19T21:53:00.954Z</time>
      </trkpt>
      <trkpt lat="45.36896" lon="4.52814">
        <ele>1208.942573</ele>
        <time>2021-12-19T21:53:09.357Z</time>
      </trkpt>
      <trkpt lat="45.36899" lon="4.52809">
        <ele>1208.942573</ele>
        <time>2021-12-19T21:53:10.052Z</time>
      </trkpt>
      <trkpt lat="45.36891" lon="4.52806">
        <ele>1208.942573</ele>
        <time>2021-12-19T21:53:11.770Z</time>
      </trkpt>
      <trkpt lat="45.36886" lon="4.52803">
        <ele>1208.942573</ele>
        <time>2021-12-19T21:53:13.099Z</time>
      </trkpt>
    </trkseg>
  </trk>
</gpx>